createdAt,value
2018-02-06T00:01:40.769Z,31.93
2018-02-06T00:04:08.379Z,30.77
2018-02-06T00:06:35.970Z,29.00
2018-02-06T00:09:03.619Z,26.77
2018-02-06T00:11:31.231Z,27.50
2018-02-06T00:13:58.825Z,27.53
2018-02-06T00:16:26.478Z,27.53
2018-02-06T00:18:54.140Z,27.87
2018-02-06T00:21:21.740Z,27.33
2018-02-06T00:23:49.324Z,25.33
2018-02-06T00:26:16.964Z,26.50
2018-02-06T00:28:44.547Z,24.20
2018-02-06T00:31:12.133Z,25.50
2018-02-06T00:33:40.052Z,26.70
2018-02-06T00:36:07.693Z,24.77
2018-02-06T00:38:35.321Z,25.43
2018-02-06T00:41:20.299Z,23.97
2018-02-06T00:43:47.968Z,26.33
2018-02-06T00:46:15.630Z,23.37
2018-02-06T00:48:43.374Z,27.37
2018-02-06T00:51:11.096Z,23.80
2018-02-06T00:53:38.681Z,26.03
2018-02-06T00:56:06.619Z,24.93
2018-02-06T00:58:34.206Z,25.53
2018-02-06T01:01:01.836Z,23.73
2018-02-06T01:03:29.696Z,24.90
2018-02-06T01:05:57.288Z,28.30
2018-02-06T01:08:24.877Z,23.90
2018-02-06T01:10:52.533Z,24.93
2018-02-06T01:13:20.168Z,23.93
2018-02-06T01:15:47.742Z,24.33
2018-02-06T01:18:15.395Z,26.73
2018-02-06T01:20:42.969Z,26.97
2018-02-06T01:23:10.555Z,25.20
2018-02-06T01:25:38.473Z,27.27
2018-02-06T01:28:06.054Z,27.87
2018-02-06T01:30:33.697Z,23.33
2018-02-06T01:33:01.429Z,24.70
2018-02-06T01:35:29.015Z,25.47
2018-02-06T01:37:56.628Z,25.40
2018-02-06T01:40:24.247Z,25.87
2018-02-06T01:42:51.817Z,27.30
2018-02-06T01:45:19.426Z,26.47
2018-02-06T01:47:47.079Z,26.20
2018-02-06T01:50:14.674Z,26.63
2018-02-06T01:52:42.318Z,26.30
2018-02-06T01:55:09.956Z,27.00
2018-02-06T01:57:37.660Z,26.57
2018-02-06T02:00:05.292Z,28.80
2018-02-06T02:02:33.001Z,26.53
2018-02-06T02:05:00.674Z,26.20
2018-02-06T02:07:28.382Z,26.60
2018-02-06T02:09:56.010Z,24.03
2018-02-06T02:12:23.616Z,23.93
2018-02-06T02:14:51.213Z,22.80
2018-02-06T02:17:18.886Z,23.60
2018-02-06T02:19:46.499Z,24.50
2018-02-06T02:22:14.086Z,24.70
2018-02-06T02:24:41.736Z,25.87
2018-02-06T02:27:09.324Z,25.07
2018-02-06T02:29:36.907Z,25.20
2018-02-06T02:32:04.906Z,26.30
2018-02-06T02:34:32.463Z,25.30
2018-02-06T02:37:00.046Z,22.40
2018-02-06T02:39:28.024Z,23.87
2018-02-06T04:40:01.398Z,23.40
2018-02-06T04:42:28.981Z,25.90
2018-02-06T04:44:56.815Z,26.47
2018-02-06T04:47:24.401Z,28.27
2018-02-06T04:49:52.001Z,26.43
2018-02-06T04:52:19.621Z,54.03
2018-02-06T04:54:47.247Z,26.50
2018-02-06T04:57:14.884Z,27.40
2018-02-06T04:59:42.574Z,25.90
2018-02-06T05:02:10.232Z,26.77
2018-02-06T05:04:37.806Z,24.17
2018-02-06T05:07:05.433Z,28.20
2018-02-06T05:09:33.080Z,28.00
2018-02-06T05:12:00.664Z,29.07
2018-02-06T05:14:28.504Z,28.50
2018-02-06T05:16:56.094Z,30.03
2018-02-06T05:19:23.681Z,28.70
2018-02-06T05:21:51.357Z,29.67
2018-02-06T05:24:18.932Z,31.47
2018-02-06T05:26:46.634Z,39.23
2018-02-06T05:29:14.294Z,35.83
2018-02-06T05:31:41.944Z,36.33
2018-02-06T05:34:09.582Z,35.03
2018-02-06T05:36:38.186Z,28.10
2018-02-06T05:39:05.851Z,27.67
2018-02-06T05:41:33.485Z,25.77
2018-02-06T05:44:01.116Z,26.30
2018-02-06T05:46:28.703Z,28.10
2018-02-06T05:48:56.295Z,27.97
2018-02-06T05:51:23.976Z,25.03
2018-02-06T05:53:51.554Z,29.60
2018-02-06T05:56:19.157Z,26.23
2018-02-06T05:58:47.868Z,26.40
2018-02-06T06:01:15.455Z,28.07
2018-02-06T06:03:43.781Z,31.07
2018-02-06T06:06:12.070Z,38.60
2018-02-06T06:08:39.725Z,30.97
2018-02-06T06:11:07.362Z,27.47
2018-02-06T06:13:35.046Z,26.80
2018-02-06T06:16:02.665Z,26.10
2018-02-06T06:18:30.276Z,23.90
2018-02-06T06:20:57.968Z,25.77
2018-02-06T06:23:25.535Z,23.23
2018-02-06T06:25:53.638Z,27.27
2018-02-06T06:28:21.293Z,35.93
2018-02-06T06:30:48.949Z,43.63
2018-02-06T06:33:16.561Z,53.63
2018-02-06T06:35:44.241Z,52.37
2018-02-06T06:38:11.890Z,52.37
2018-02-06T06:40:39.468Z,49.90
2018-02-06T06:43:07.171Z,45.83
2018-02-06T06:45:34.795Z,44.10
2018-02-06T06:48:02.396Z,42.77
2018-02-06T06:50:30.033Z,45.27
2018-02-06T06:52:57.619Z,40.40
2018-02-06T06:55:25.201Z,40.80
2018-02-06T06:57:52.863Z,44.90
2018-02-06T07:00:20.509Z,42.27
2018-02-06T07:02:48.439Z,41.70
2018-02-06T07:05:16.434Z,43.50
2018-02-06T07:07:44.025Z,42.23
2018-02-06T07:10:11.653Z,46.13
2018-02-06T07:12:39.359Z,45.03
2018-02-06T07:15:07.004Z,46.37
2018-02-06T07:17:34.604Z,52.53
2018-02-06T07:20:02.255Z,48.27
2018-02-06T07:22:29.841Z,49.80
2018-02-06T07:24:57.460Z,46.53
2018-02-06T07:27:25.103Z,43.83
2018-02-06T07:29:53.208Z,37.93
2018-02-06T07:32:20.798Z,42.43
2018-02-06T07:34:48.465Z,42.10
2018-02-06T07:37:16.110Z,44.20
2018-02-06T07:39:43.679Z,47.37
2018-02-06T07:42:11.925Z,45.03
2018-02-06T07:44:39.504Z,43.93
2018-02-06T07:47:07.092Z,45.07
2018-02-06T07:49:34.842Z,49.87
2018-02-06T07:52:02.419Z,49.70
2018-02-06T07:54:30.031Z,48.13
2018-02-06T07:56:57.690Z,48.27
2018-02-06T07:59:25.255Z,47.17
2018-02-06T08:01:52.877Z,56.23
2018-02-06T08:04:20.562Z,59.30
2018-02-06T08:06:48.189Z,73.53
2018-02-06T08:09:15.804Z,130.03
2018-02-06T08:11:43.529Z,62.80
2018-02-06T08:14:11.192Z,51.30
2018-02-06T08:16:38.908Z,42.03
2018-02-06T08:19:06.580Z,40.07
2018-02-06T08:21:34.160Z,42.40
2018-02-06T08:24:01.802Z,37.97
2018-02-06T08:26:29.502Z,39.10
2018-02-06T08:28:57.099Z,37.40
2018-02-06T08:31:24.688Z,38.97
2018-02-06T08:33:52.341Z,49.17
2018-02-06T08:36:20.587Z,39.73
2018-02-06T08:38:48.222Z,37.73
2018-02-06T08:41:15.866Z,34.57
2018-02-06T08:43:43.518Z,36.60
2018-02-06T08:46:12.151Z,36.23
2018-02-06T08:48:42.081Z,34.60
2018-02-06T08:51:09.762Z,32.70
2018-02-06T08:53:38.501Z,30.30
2018-02-06T08:56:06.175Z,32.93
2018-02-06T08:58:33.845Z,28.87
2018-02-06T09:01:01.450Z,29.27
2018-02-06T09:03:29.135Z,27.97
2018-02-06T09:05:56.753Z,26.73
2018-02-06T09:08:24.477Z,27.73
2018-02-06T09:10:52.199Z,27.90
2018-02-06T09:13:19.860Z,25.07
2018-02-06T09:15:47.512Z,29.77
2018-02-06T09:18:15.290Z,29.80
2018-02-06T09:20:42.896Z,26.37
2018-02-06T09:23:10.730Z,30.53
2018-02-06T09:25:38.357Z,31.43
2018-02-06T09:28:05.983Z,32.00
2018-02-06T09:30:33.629Z,26.90
2018-02-06T09:33:01.311Z,23.70
2018-02-06T09:35:28.927Z,24.40
2018-02-06T09:37:56.527Z,21.40
2018-02-06T09:40:24.392Z,26.60
2018-02-06T09:42:52.095Z,23.57
2018-02-06T09:45:19.776Z,27.70
2018-02-06T09:47:47.499Z,25.33
2018-02-06T09:50:15.105Z,26.30
2018-02-06T09:52:42.711Z,27.30
2018-02-06T09:55:10.382Z,30.20
2018-02-06T09:57:37.965Z,22.97
2018-02-06T10:00:05.572Z,33.17
2018-02-06T10:02:33.493Z,26.83
2018-02-06T10:05:01.105Z,36.47
2018-02-06T10:07:28.705Z,45.43
2018-02-06T10:09:56.450Z,34.70
2018-02-06T10:12:24.056Z,39.83
2018-02-06T10:14:52.530Z,29.77
2018-02-06T10:17:20.172Z,28.13
2018-02-06T10:19:47.781Z,25.97
2018-02-06T10:22:15.364Z,26.47
2018-02-06T10:24:43.026Z,28.53
2018-02-06T10:27:10.642Z,28.27
2018-02-06T10:29:38.308Z,31.70
2018-02-06T10:32:05.975Z,34.23
2018-02-06T10:34:33.650Z,31.10
2018-02-06T10:37:01.223Z,28.80
2018-02-06T10:39:29.171Z,27.50
2018-02-06T10:41:56.774Z,29.10
2018-02-06T10:44:25.397Z,29.70
2018-02-06T10:46:53.977Z,30.33
2018-02-06T10:49:22.353Z,31.60
2018-02-06T10:51:49.969Z,28.27
2018-02-06T10:54:17.596Z,31.73
2018-02-06T10:56:45.163Z,32.83
2018-02-06T10:59:12.743Z,28.73
2018-02-06T11:01:40.390Z,33.23
2018-02-06T11:04:07.983Z,32.03
2018-02-06T11:06:35.586Z,28.57
2018-02-06T11:09:03.338Z,32.67
2018-02-06T11:11:30.971Z,33.50
2018-02-06T11:13:58.574Z,28.33
2018-02-06T11:16:26.527Z,26.70
2018-02-06T11:18:54.119Z,26.77
2018-02-06T11:21:21.761Z,25.27
2018-02-06T11:23:49.404Z,25.33
2018-02-06T11:26:16.993Z,24.00
2018-02-06T11:28:44.581Z,26.17
2018-02-06T11:31:12.227Z,23.53
2018-02-06T11:33:39.847Z,25.53
2018-02-06T11:36:07.434Z,24.57
2018-02-06T11:38:35.056Z,25.23
2018-02-06T11:41:02.635Z,23.30
2018-02-06T11:43:30.298Z,20.77
2018-02-06T11:45:58.174Z,23.30
2018-02-06T11:48:25.759Z,23.07
2018-02-06T11:50:53.338Z,25.23
2018-02-06T11:53:21.006Z,30.30
2018-02-06T11:55:48.653Z,23.40
2018-02-06T11:58:16.255Z,25.63
2018-02-06T12:00:43.871Z,24.07
2018-02-06T12:03:12.070Z,23.17
2018-02-06T12:05:39.653Z,25.37
2018-02-06T12:08:07.308Z,22.60
2018-02-06T12:10:35.331Z,23.20
2018-02-06T12:13:03.024Z,23.60
2018-02-06T12:15:30.657Z,23.87
2018-02-06T12:17:58.241Z,24.37
2018-02-06T12:20:25.837Z,21.20
2018-02-06T12:22:53.517Z,22.90
2018-02-06T12:25:21.149Z,23.23
2018-02-06T12:27:48.744Z,23.33
2018-02-06T12:30:16.374Z,22.77
2018-02-06T12:32:43.972Z,19.30
2018-02-06T12:35:11.555Z,18.93
2018-02-06T12:37:39.212Z,20.17
2018-02-06T12:40:06.795Z,21.33
2018-02-06T12:42:34.396Z,20.77
2018-02-06T12:45:03.137Z,20.00
2018-02-06T12:47:30.720Z,20.00
2018-02-06T12:49:58.357Z,17.97
2018-02-06T12:52:25.964Z,20.63
2018-02-06T12:54:53.576Z,20.30
2018-02-06T12:57:21.155Z,21.17
2018-02-06T12:59:49.317Z,20.53
2018-02-06T13:02:16.925Z,18.20
2018-02-06T13:04:44.499Z,19.17
2018-02-06T13:07:12.185Z,20.20
2018-02-06T13:09:39.782Z,22.87
2018-02-06T13:12:07.383Z,26.93
2018-02-06T13:14:35.110Z,24.63
2018-02-06T13:17:02.722Z,23.80
2018-02-06T13:19:30.445Z,22.83
2018-02-06T13:21:58.082Z,23.60
2018-02-06T13:24:25.677Z,26.80
2018-02-06T13:26:53.804Z,19.80
2018-02-06T13:29:21.437Z,23.63
2018-02-06T13:31:49.038Z,22.90
2018-02-06T13:34:16.622Z,23.83
2018-02-06T13:36:44.343Z,25.33
2018-02-06T13:39:12.009Z,24.10
2018-02-06T13:41:39.601Z,23.00
2018-02-06T13:44:08.219Z,23.07
2018-02-06T13:46:35.810Z,23.37
2018-02-06T13:49:03.416Z,24.17
2018-02-06T13:51:31.056Z,20.80
2018-02-06T13:53:58.704Z,27.90
2018-02-06T13:56:26.309Z,24.03
2018-02-06T13:58:53.921Z,21.97
2018-02-06T14:01:21.513Z,27.33
2018-02-06T14:03:49.618Z,23.60
2018-02-06T14:06:17.474Z,24.30
2018-02-06T14:08:45.036Z,22.53
2018-02-06T14:11:12.674Z,42.27
2018-02-06T14:13:40.360Z,25.83
2018-02-06T14:16:10.809Z,38.03
2018-02-06T14:18:38.463Z,22.90
2018-02-06T14:21:06.097Z,22.97
2018-02-06T14:23:33.703Z,24.80
2018-02-06T14:26:01.293Z,20.73
2018-02-06T14:28:28.923Z,24.67
2018-02-06T14:30:56.512Z,22.37
2018-02-06T14:33:24.080Z,26.60
2018-02-06T14:36:03.200Z,25.03
2018-02-06T14:38:33.257Z,23.87
2018-02-06T14:41:01.339Z,24.03
2018-02-06T14:43:28.987Z,27.80
2018-02-06T14:45:56.611Z,24.83
2018-02-06T14:48:24.249Z,24.30
2018-02-06T14:50:51.856Z,23.70
2018-02-06T14:53:19.499Z,25.63
2018-02-06T14:55:47.128Z,22.37
2018-02-06T14:58:14.728Z,30.03
2018-02-06T15:00:42.312Z,24.47
2018-02-06T15:03:09.937Z,26.23
2018-02-06T15:05:37.523Z,23.50
2018-02-06T15:08:05.138Z,22.80
2018-02-06T15:10:32.845Z,28.87
2018-02-06T15:13:00.502Z,30.20
2018-02-06T15:15:28.161Z,23.60
2018-02-06T15:17:56.334Z,32.40
2018-02-06T15:20:23.908Z,23.73
2018-02-06T15:22:51.544Z,23.47
2018-02-06T15:25:19.191Z,27.60
2018-02-06T15:27:47.809Z,25.23
2018-02-06T15:30:15.376Z,24.43
2018-02-06T15:32:43.024Z,23.67
2018-02-06T15:35:10.633Z,22.30
2018-02-06T15:37:38.233Z,28.17
2018-02-06T15:40:05.911Z,26.60
2018-02-06T15:42:33.464Z,28.47
2018-02-06T15:45:01.120Z,29.70
2018-02-06T15:47:28.802Z,28.93
2018-02-06T15:49:56.413Z,29.30
2018-02-06T15:52:23.995Z,29.93
2018-02-06T15:54:51.654Z,31.47
2018-02-06T15:57:19.232Z,36.10
2018-02-06T15:59:46.846Z,37.10
2018-02-06T16:02:14.571Z,40.60
2018-02-06T16:04:43.038Z,47.37
2018-02-06T16:07:10.622Z,50.10
2018-02-06T16:09:38.267Z,61.67
2018-02-06T16:12:05.909Z,59.33
2018-02-06T16:14:33.594Z,61.37
2018-02-06T16:17:01.313Z,64.07
2018-02-06T16:19:29.400Z,67.80
2018-02-06T16:21:57.068Z,64.27
2018-02-06T16:24:24.871Z,59.07
2018-02-06T16:26:52.510Z,60.63
2018-02-06T16:29:20.165Z,60.60
2018-02-06T16:31:47.940Z,64.40
2018-02-06T16:34:15.690Z,58.77
2018-02-06T16:36:43.367Z,67.57
2018-02-06T16:39:11.058Z,60.03
2018-02-06T16:41:38.711Z,64.30
2018-02-06T16:44:06.517Z,60.87
2018-02-06T16:46:34.511Z,58.27
2018-02-06T16:49:02.433Z,57.80
2018-02-06T16:51:30.191Z,62.57
2018-02-06T16:53:57.993Z,66.73
2018-02-06T16:56:25.784Z,72.50
2018-02-06T16:58:53.591Z,66.50
2018-02-06T17:01:21.442Z,61.77
2018-02-06T17:03:49.416Z,53.73
2018-02-06T17:06:17.253Z,53.77
2018-02-06T17:08:45.162Z,53.33
2018-02-06T17:11:13.003Z,52.83
2018-02-06T17:13:40.937Z,51.87
2018-02-06T17:16:08.881Z,48.67
2018-02-06T17:18:36.838Z,43.63
2018-02-06T17:21:05.273Z,45.67
2018-02-06T17:23:33.551Z,43.30
2018-02-06T17:26:01.438Z,46.70
2018-02-06T17:28:29.300Z,50.63
2018-02-06T17:30:57.266Z,45.47
2018-02-06T17:33:25.121Z,49.43
2018-02-06T17:35:53.214Z,46.13
2018-02-06T17:38:21.160Z,47.67
2018-02-06T17:40:49.084Z,50.60
2018-02-06T17:43:17.039Z,66.80
2018-02-06T17:45:45.015Z,57.53
2018-02-06T17:48:12.957Z,51.93
2018-02-06T17:50:40.919Z,58.93
2018-02-06T17:53:08.940Z,62.97
2018-02-06T17:55:36.979Z,55.80
2018-02-06T17:58:05.049Z,46.40
2018-02-06T18:00:33.478Z,56.90
2018-02-06T18:03:02.236Z,52.00
2018-02-06T18:05:30.598Z,49.53
2018-02-06T18:07:59.185Z,48.53
2018-02-06T18:10:27.189Z,51.57
2018-02-06T18:12:55.538Z,48.87
2018-02-06T18:15:23.727Z,46.33
2018-02-06T18:17:52.241Z,45.97
2018-02-06T18:20:20.500Z,56.33
2018-02-06T18:22:48.938Z,52.70
2018-02-06T18:25:17.010Z,52.63
2018-02-06T18:27:45.068Z,49.40
2018-02-06T18:30:13.309Z,48.20
2018-02-06T18:32:41.544Z,49.73
2018-02-06T18:35:11.725Z,49.43
2018-02-06T18:37:39.812Z,48.60
2018-02-06T18:40:07.830Z,53.23
2018-02-06T18:42:36.191Z,48.77
2018-02-06T18:45:04.247Z,50.63
2018-02-06T18:47:32.524Z,49.80
2018-02-06T18:50:00.625Z,51.00
2018-02-06T18:52:28.577Z,47.57
2018-02-06T18:54:56.464Z,48.83
2018-02-06T18:57:24.432Z,50.37
2018-02-06T18:59:52.604Z,45.97
2018-02-06T19:02:20.918Z,48.23
2018-02-06T19:04:49.487Z,47.33
2018-02-06T19:07:17.726Z,47.93
2018-02-06T19:09:46.034Z,49.60
2018-02-06T19:12:14.097Z,55.57
2018-02-06T19:14:42.430Z,54.07
2018-02-06T19:17:10.742Z,49.50
2018-02-06T19:19:39.227Z,52.13
2018-02-06T19:22:08.211Z,53.30
2018-02-06T19:24:36.676Z,56.93
2018-02-06T19:27:04.765Z,55.80
2018-02-06T19:29:32.976Z,49.40
2018-02-06T19:32:00.875Z,53.00
2018-02-06T19:34:28.842Z,50.70
2018-02-06T19:36:56.924Z,50.67
2018-02-06T19:39:24.927Z,49.77
2018-02-06T19:41:53.612Z,51.23
2018-02-06T19:44:21.784Z,56.97
2018-02-06T19:46:49.761Z,56.43
2018-02-06T19:49:18.449Z,61.50
2018-02-06T19:51:46.940Z,65.73
2018-02-06T19:54:15.312Z,52.90
2018-02-06T19:56:43.737Z,50.43
2018-02-06T19:59:11.651Z,49.73
2018-02-06T20:01:39.783Z,46.70
2018-02-06T20:04:07.900Z,46.57
2018-02-06T20:06:36.236Z,46.07
2018-02-06T20:09:04.214Z,49.97
2018-02-06T20:11:32.114Z,48.10
2018-02-06T20:14:00.132Z,52.47
2018-02-06T20:16:28.013Z,47.43
2018-02-06T20:18:55.914Z,47.63
2018-02-06T20:21:24.028Z,48.30
2018-02-06T20:23:52.117Z,47.07
2018-02-06T20:26:20.362Z,47.30
2018-02-06T20:28:48.257Z,46.57
2018-02-06T20:31:16.119Z,45.10
2018-02-06T20:33:43.985Z,48.27
2018-02-06T20:36:12.072Z,41.50
2018-02-06T20:38:40.012Z,43.03
2018-02-06T20:41:07.956Z,43.13
2018-02-06T20:43:35.900Z,39.73
2018-02-06T20:46:04.125Z,39.77
2018-02-06T20:48:32.052Z,46.23
2018-02-06T20:51:00.136Z,36.93
2018-02-06T20:53:28.078Z,52.53
2018-02-06T20:55:56.163Z,41.00
2018-02-06T20:58:24.387Z,36.33
2018-02-06T21:00:52.384Z,39.13
2018-02-06T21:03:20.386Z,42.33
2018-02-06T21:05:48.253Z,53.67
2018-02-06T21:08:16.075Z,39.93
2018-02-06T21:10:43.738Z,36.93
2018-02-06T21:13:11.409Z,36.80
2018-02-06T21:15:39.124Z,34.67
2018-02-06T21:18:06.874Z,30.10
2018-02-06T21:20:34.599Z,31.20
2018-02-06T21:23:02.211Z,31.80
2018-02-06T21:25:29.783Z,30.60
2018-02-06T21:27:57.558Z,29.80
2018-02-06T21:30:25.137Z,31.73
2018-02-06T21:32:52.717Z,33.17
2018-02-06T21:35:20.369Z,33.90
2018-02-06T21:37:47.948Z,31.80
2018-02-06T21:40:15.526Z,31.00
2018-02-06T21:42:43.141Z,36.07
2018-02-06T21:45:10.737Z,31.67
2018-02-06T21:47:38.316Z,33.87
2018-02-06T21:50:05.959Z,33.37
2018-02-06T21:52:33.598Z,31.50
2018-02-06T21:55:01.234Z,29.73
2018-02-06T21:57:28.864Z,31.63
2018-02-06T21:59:56.458Z,29.73
2018-02-06T22:02:24.119Z,28.63
2018-02-06T22:04:51.768Z,34.20
2018-02-06T22:07:19.324Z,30.13
2018-02-06T22:09:46.899Z,28.67
2018-02-06T22:12:14.510Z,29.50
2018-02-06T22:14:42.078Z,27.10
2018-02-06T22:17:09.718Z,29.40
2018-02-06T22:19:37.689Z,28.67
2018-02-06T22:22:05.279Z,32.37
2018-02-06T22:24:32.839Z,32.50
2018-02-06T22:27:00.982Z,34.10
2018-02-06T22:29:28.698Z,34.03
2018-02-06T22:31:56.260Z,33.90
2018-02-06T22:34:26.168Z,31.70
2018-02-06T22:36:53.802Z,32.97
2018-02-06T22:39:21.392Z,34.33
2018-02-06T22:41:49.012Z,31.07
2018-02-06T22:44:16.649Z,32.63
2018-02-06T22:46:44.288Z,31.30
2018-02-06T22:49:11.909Z,31.40
2018-02-06T22:51:39.473Z,31.17
2018-02-06T22:54:07.054Z,29.87
2018-02-06T22:56:34.685Z,31.80
2018-02-06T22:59:02.280Z,32.60
2018-02-06T23:01:29.849Z,32.40
2018-02-06T23:03:57.469Z,31.43
2018-02-06T23:06:25.091Z,29.47
2018-02-06T23:08:52.665Z,30.20
2018-02-06T23:11:20.361Z,28.60
2018-02-06T23:13:48.312Z,28.43
2018-02-06T23:16:16.448Z,28.83
2018-02-06T23:18:45.173Z,31.13
2018-02-06T23:21:12.796Z,28.27
2018-02-06T23:23:40.381Z,26.70
2018-02-06T23:26:08.664Z,25.60
2018-02-06T23:28:36.228Z,27.80
2018-02-06T23:31:03.883Z,26.13
2018-02-06T23:33:31.505Z,25.93
2018-02-06T23:35:59.089Z,31.67
2018-02-06T23:38:26.657Z,29.30
2018-02-06T23:40:54.358Z,28.63
2018-02-06T23:43:21.923Z,28.77
2018-02-06T23:45:49.560Z,35.53
2018-02-06T23:48:17.244Z,33.70
2018-02-06T23:50:44.840Z,29.57
2018-02-06T23:53:12.648Z,28.17
2018-02-06T23:55:40.322Z,25.33
2018-02-06T23:58:07.894Z,28.80
